TimeMST,TemperatureF,Dew PointF,Humidity,Sea Level PressureIn,VisibilityMPH,Wind Direction,Wind SpeedMPH,Gust SpeedMPH,PrecipitationIn,Events,Conditions,WindDirDegrees,DateUTC
12:00 AM,47,35,53,,,SW,2.3,,,,,230,2012-11-04 06:00:00
12:00 AM,47.3,35.2,63,-9999,-9999.0,SW,2.3,-,N/A,,Unknown,230,2012-11-04 06:00:00
1:00 AM,48.7,37.4,65,-9999,-9999.0,WNW,15.0,-,N/A,,Unknown,290,2012-11-04 07:00:00
1:00 AM,48.0,37.9,68,-9999,-9999.0,NW,16.1,-,N/A,,Unknown,310,2012-11-04 08:00:00
2:00 AM,48.6,38.5,68,-9999,-9999.0,WNW,18.4,-,N/A,,Unknown,300,2012-11-04 09:00:00
3:00 AM,43.9,37.8,79,-9999,-9999.0,West,12.7,-,N/A,,Unknown,280,2012-11-04 10:00:00
4:00 AM,39.4,33.3,79,-9999,-9999.0,NNW,9.2,-,N/A,,Unknown,330,2012-11-04 11:00:00
5:00 AM,39,33,73,,,NW,4.6,,,,,320,2012-11-04 12:00:00
5:00 AM,38.7,33.4,81,-9999,-9999.0,NW,4.6,-,N/A,,Unknown,320,2012-11-04 12:00:00
6:00 AM,33.3,30.2,89,-9999,-9999.0,North,6.9,-,N/A,,Unknown,350,2012-11-04 13:00:00
7:00 AM,28.6,26.6,92,-9999,-9999.0,West,5.8,-,N/A,,Unknown,280,2012-11-04 14:00:00
8:00 AM,31.1,29.7,94,-9999,-9999.0,WNW,4.6,-,N/A,,Unknown,300,2012-11-04 15:00:00
9:00 AM,37.4,34.3,89,-9999,-9999.0,SW,4.6,-,N/A,,Unknown,220,2012-11-04 16:00:00
10:00 AM,45.3,36.1,70,-9999,-9999.0,SSE,3.5,-,N/A,,Unknown,160,2012-11-04 17:00:00
11:00 AM,51,37,48,,,South,5.8,,,,,180,2012-11-04 18:00:00
11:00 AM,50.7,37.2,60,-9999,-9999.0,South,5.8,-,N/A,,Unknown,180,2012-11-04 18:00:00
12:00 PM,56.5,38.8,52,-9999,-9999.0,West,11.5,-,N/A,,Unknown,270,2012-11-04 19:00:00
1:00 PM,59.2,33.4,38,-9999,-9999.0,SW,10.4,-,N/A,,Unknown,230,2012-11-04 20:00:00
3:00 PM,56.1,36.9,48,-9999,-9999.0,West,17.3,-,N/A,,Unknown,280,2012-11-04 22:00:00
4:00 PM,54.9,37.6,52,-9999,-9999.0,West,11.5,-,N/A,,Unknown,260,2012-11-04 23:00:00
5:00 PM,53,38,45,,,WSW,17.3,,,,,250,2012-11-05 00:00:00
5:00 PM,53.2,37.9,56,-9999,-9999.0,WSW,17.3,-,N/A,,Unknown,250,2012-11-05 00:00:00
6:00 PM,53.6,39.6,59,-9999,-9999.0,West,18.4,-,N/A,,Unknown,260,2012-11-05 01:00:00
7:00 PM,53.2,40.5,62,-9999,-9999.0,West,19.6,-,N/A,,Unknown,270,2012-11-05 02:00:00
8:00 PM,50.7,40.8,69,-9999,-9999.0,SSE,6.9,-,N/A,,Unknown,160,2012-11-05 03:00:00
9:00 PM,52.7,41.5,66,-9999,-9999.0,WSW,25.3,-,N/A,,Unknown,250,2012-11-05 04:00:00
10:00 PM,52.7,41.4,65,-9999,-9999.0,South,10.4,-,N/A,,Unknown,190,2012-11-05 05:00:00